Time;durP1;ratioP1;P1;durP2;ratioP2;P2;SDS_P1;SDS_P2;PMS_P1;PMS_P2;Temp;Humidity;BMP_temperature;BMP_pressure;BME280_temperature;BME280_humidity;BME280_pressure;Samples;Min_cycle;Max_cycle;Signal;HPM_P1;HPM_P2
2022/02/22 00:01:50;;;;;;;37.57;7.10;;;5.90;99.90;;;;;;5092284;28;20051;-77
2022/02/22 00:04:16;;;;;;;33.00;6.73;;;5.90;99.90;;;;;;5056797;28;20115;-76
2022/02/22 00:06:42;;;;;;;30.83;6.77;;;5.80;99.90;;;;;;5089930;28;20398;-77
2022/02/22 00:09:08;;;;;;;30.27;7.30;;;5.80;99.90;;;;;;5066512;28;20032;-76
2022/02/22 00:11:34;;;;;;;34.73;7.10;;;5.80;99.90;;;;;;5070583;28;20086;-77
2022/02/22 00:13:59;;;;;;;32.83;7.60;;;5.70;99.90;;;;;;5093492;28;20486;-76
2022/02/22 00:16:25;;;;;;;30.50;6.70;;;5.70;99.90;;;;;;5083101;28;20436;-77
2022/02/22 00:18:51;;;;;;;36.08;7.65;;;5.70;99.90;;;;;;5104026;27;20501;-77
2022/02/22 00:21:19;;;;;;;36.17;6.97;;;5.60;99.90;;;;;;5081582;28;20410;-77
2022/02/22 00:23:46;;;;;;;37.47;7.80;;;5.60;99.90;;;;;;5052386;28;20051;-76
2022/02/22 00:26:12;;;;;;;36.20;7.78;;;5.60;99.90;;;;;;5105503;28;20039;-77
2022/02/22 00:28:38;;;;;;;34.47;7.80;;;5.50;99.90;;;;;;5071686;28;21467;-77
2022/02/22 00:31:04;;;;;;;39.42;6.95;;;5.50;99.90;;;;;;5081325;28;20043;-77
2022/02/22 00:33:29;;;;;;;40.03;7.87;;;5.40;99.90;;;;;;5054307;28;20406;-77
2022/02/22 00:35:56;;;;;;;36.63;7.33;;;5.40;99.90;;;;;;5085808;28;20125;-76
2022/02/22 00:38:25;;;;;;;38.50;7.83;;;5.40;99.90;;;;;;5057901;28;20449;-77
2022/02/22 00:40:51;;;;;;;38.33;8.32;;;5.40;99.90;;;;;;5078940;28;20305;-76
2022/02/22 00:43:17;;;;;;;39.53;7.23;;;5.40;99.90;;;;;;5069359;28;20254;-77
2022/02/22 00:45:42;;;;;;;41.40;8.17;;;5.30;99.90;;;;;;5050994;28;20387;-76
2022/02/22 00:48:11;;;;;;;41.27;7.77;;;5.30;99.90;;;;;;5082163;28;20787;-76
2022/02/22 00:50:38;;;;;;;39.23;7.87;;;5.30;99.90;;;;;;5071408;28;20048;-77
2022/02/22 00:53:04;;;;;;;35.77;7.43;;;5.30;99.90;;;;;;5072739;28;20051;-77
2022/02/22 00:55:31;;;;;;;32.73;7.07;;;5.30;99.90;;;;;;5084644;28;20047;-76
2022/02/22 00:57:57;;;;;;;26.70;6.13;;;5.30;99.90;;;;;;5088824;28;20122;-77
2022/02/22 01:00:22;;;;;;;32.73;6.73;;;5.30;99.90;;;;;;5069195;28;22056;-76
2022/02/22 01:02:48;;;;;;;27.73;6.07;;;5.30;99.90;;;;;;5103543;28;20047;-77
2022/02/22 01:05:14;;;;;;;27.13;6.33;;;5.40;99.90;;;;;;5058517;28;20140;-77
2022/02/22 01:07:41;;;;;;;32.33;6.43;;;5.40;99.90;;;;;;5077409;28;20043;-76
2022/02/22 01:10:08;;;;;;;32.73;6.10;;;5.30;99.90;;;;;;5103970;28;20069;-76
2022/02/22 01:12:33;;;;;;;28.87;6.17;;;5.40;99.90;;;;;;5103450;27;20126;-77
2022/02/22 01:14:59;;;;;;;33.07;7.87;;;5.40;99.90;;;;;;5050910;28;20139;-77
2022/02/22 01:17:25;;;;;;;27.80;5.53;;;5.40;99.90;;;;;;5053414;28;20127;-76
2022/02/22 01:19:51;;;;;;;29.10;5.73;;;5.30;99.90;;;;;;5087268;28;20052;-77
2022/02/22 01:22:17;;;;;;;28.47;6.47;;;5.30;99.90;;;;;;5117091;27;20031;-76
2022/02/22 01:24:43;;;;;;;31.63;6.80;;;5.30;99.90;;;;;;5099437;28;20040;-77
2022/02/22 01:27:08;;;;;;;28.63;5.78;;;5.30;99.90;;;;;;5099762;28;20050;-77
2022/02/22 01:29:35;;;;;;;33.92;6.28;;;5.30;99.90;;;;;;5074817;28;20044;-76
2022/02/22 01:32:00;;;;;;;41.20;7.97;;;5.30;99.90;;;;;;5092905;28;20058;-77
2022/02/22 01:34:26;;;;;;;31.17;6.30;;;5.30;99.90;;;;;;5075672;28;20035;-77
2022/02/22 01:36:52;;;;;;;33.77;7.27;;;5.20;99.90;;;;;;5099058;28;20047;-77
2022/02/22 01:39:18;;;;;;;35.33;7.03;;;5.20;99.90;;;;;;5073873;28;20036;-77
2022/02/22 01:41:44;;;;;;;33.87;6.67;;;5.10;99.90;;;;;;5077069;28;20048;-77
2022/02/22 01:44:11;;;;;;;31.70;7.07;;;5.00;99.90;;;;;;5088163;28;20044;-77
2022/02/22 01:46:37;;;;;;;30.83;6.77;;;5.00;99.90;;;;;;5081251;28;20059;-77
2022/02/22 01:49:03;;;;;;;25.93;6.40;;;5.10;99.90;;;;;;5090323;28;20035;-77
2022/02/22 01:51:29;;;;;;;34.40;6.93;;;5.10;99.90;;;;;;5106008;28;20055;-77
2022/02/22 01:53:55;;;;;;;27.37;6.20;;;5.10;99.90;;;;;;5083173;28;20047;-77
2022/02/22 01:56:23;;;;;;;34.17;6.87;;;5.10;99.90;;;;;;5070760;28;20407;-77
2022/02/22 01:58:49;;;;;;;29.20;6.70;;;5.10;99.90;;;;;;5098158;28;20087;-76
2022/02/22 02:01:15;;;;;;;30.63;6.40;;;5.10;99.90;;;;;;5054242;28;20086;-78
2022/02/22 02:03:41;;;;;;;26.67;6.47;;;5.10;99.90;;;;;;5106182;28;20047;-77
2022/02/22 02:06:07;;;;;;;31.03;6.57;;;5.10;99.90;;;;;;5098837;28;20093;-77
2022/02/22 02:08:36;;;;;;;25.58;6.50;;;5.00;99.90;;;;;;5052882;28;20032;-77
2022/02/22 02:11:09;;;;;;;31.03;7.33;;;5.00;99.90;;;;;;5087645;28;20370;-78
2022/02/22 02:13:35;;;;;;;36.13;7.03;;;5.00;99.90;;;;;;5065660;28;20092;-77
2022/02/22 02:16:00;;;;;;;28.63;6.47;;;5.00;99.90;;;;;;5090364;28;20051;-77
2022/02/22 02:18:26;;;;;;;26.77;5.83;;;5.00;99.90;;;;;;5074139;28;20044;-77
2022/02/22 02:20:52;;;;;;;28.52;6.57;;;4.90;99.90;;;;;;5051420;28;20052;-77
2022/02/22 02:23:18;;;;;;;29.03;7.03;;;4.90;99.90;;;;;;5097884;28;20686;-77
2022/02/22 02:25:45;;;;;;;29.88;7.95;;;4.90;99.90;;;;;;5081191;28;20556;-78
2022/02/22 02:28:11;;;;;;;34.23;7.50;;;4.80;99.90;;;;;;5073703;28;20046;-77
2022/02/22 02:30:37;;;;;;;31.80;7.70;;;4.80;99.90;;;;;;5077197;28;20040;-77
2022/02/22 02:33:05;;;;;;;28.93;5.33;;;4.80;99.90;;;;;;5084097;28;20048;-77
2022/02/22 02:35:32;;;;;;;33.23;7.23;;;4.70;99.90;;;;;;5074962;28;20629;-77
2022/02/22 02:37:58;;;;;;;34.63;6.80;;;4.70;99.90;;;;;;5082852;28;20036;-77
2022/02/22 02:40:30;;;;;;;30.43;6.30;;;4.70;99.90;;;;;;5092825;28;20582;-77
2022/02/22 02:42:56;;;;;;;31.53;7.37;;;4.60;99.90;;;;;;5082986;28;20521;-77
2022/02/22 02:45:26;;;;;;;35.43;6.43;;;4.60;99.90;;;;;;5080051;28;20039;-77
2022/02/22 02:47:52;;;;;;;28.15;8.00;;;4.50;99.90;;;;;;5080771;28;20533;-77
2022/02/22 02:50:18;;;;;;;31.03;6.40;;;4.60;99.90;;;;;;5091975;28;20075;-77
2022/02/22 02:52:44;;;;;;;39.13;6.37;;;4.50;99.90;;;;;;5077499;28;20345;-77
2022/02/22 02:55:10;;;;;;;26.63;5.73;;;4.50;99.90;;;;;;5101094;28;20134;-77
2022/02/22 02:57:36;;;;;;;27.60;6.90;;;4.50;99.90;;;;;;5084163;28;20554;-77
2022/02/22 03:00:05;;;;;;;25.93;6.50;;;4.50;99.90;;;;;;5085506;28;20076;-77
2022/02/22 03:02:31;;;;;;;29.70;6.30;;;4.50;99.90;;;;;;5067161;28;20055;-76
2022/02/22 03:04:59;;;;;;;30.77;7.17;;;4.40;99.90;;;;;;5085178;28;20048;-77
2022/02/22 03:07:26;;;;;;;28.30;6.70;;;4.50;99.90;;;;;;5053977;28;20047;-77
2022/02/22 03:09:52;;;;;;;31.03;7.40;;;4.40;99.90;;;;;;5089345;28;20458;-77
2022/02/22 03:12:18;;;;;;;31.33;6.23;;;4.40;99.90;;;;;;5065602;28;20050;-77
2022/02/22 03:14:47;;;;;;;30.00;6.30;;;4.40;99.90;;;;;;5087978;28;20051;-77
2022/02/22 03:17:13;;;;;;;31.17;7.70;;;4.30;99.90;;;;;;5085472;28;20956;-77
2022/02/22 03:19:39;;;;;;;27.37;6.17;;;4.30;99.90;;;;;;5034121;28;20147;-77
2022/02/22 03:22:05;;;;;;;31.37;7.03;;;4.30;99.90;;;;;;5053426;28;20058;-77
2022/02/22 03:24:31;;;;;;;33.87;6.33;;;4.30;99.90;;;;;;5118126;27;20115;-76
2022/02/22 03:26:57;;;;;;;26.80;5.73;;;4.30;99.90;;;;;;5051013;28;20134;-77
2022/02/22 03:29:25;;;;;;;25.73;5.20;;;4.30;99.90;;;;;;5100662;27;20055;-77
2022/02/22 03:31:51;;;;;;;31.40;6.33;;;4.30;99.90;;;;;;5080809;28;20044;-77
2022/02/22 03:34:17;;;;;;;24.07;5.43;;;4.30;99.90;;;;;;5065424;28;20139;-77
2022/02/22 03:36:43;;;;;;;27.43;6.77;;;4.20;99.90;;;;;;5066447;28;20055;-77
2022/02/22 03:39:09;;;;;;;28.33;6.10;;;4.30;99.90;;;;;;5087303;28;20039;-77
2022/02/22 03:41:35;;;;;;;27.57;4.87;;;4.20;99.90;;;;;;5069636;28;20473;-77
2022/02/22 03:44:01;;;;;;;27.70;6.03;;;4.20;99.90;;;;;;5070462;28;20174;-77
2022/02/22 03:46:27;;;;;;;27.90;6.47;;;4.30;99.90;;;;;;5103725;28;20036;-77
2022/02/22 03:48:53;;;;;;;27.97;6.00;;;4.30;99.90;;;;;;5082880;28;20141;-77
2022/02/22 03:51:19;;;;;;;24.47;5.07;;;4.30;99.90;;;;;;5086080;28;20101;-77
2022/02/22 03:53:45;;;;;;;25.60;5.70;;;4.30;99.90;;;;;;5121026;27;20562;-77
2022/02/22 03:56:10;;;;;;;24.77;5.37;;;4.20;99.90;;;;;;5105017;28;20055;-77
2022/02/22 03:58:36;;;;;;;23.70;5.57;;;4.20;99.90;;;;;;5104160;28;20138;-77
2022/02/22 04:01:03;;;;;;;23.03;6.73;;;4.10;99.90;;;;;;5070828;28;20043;-77
2022/02/22 04:03:29;;;;;;;30.87;5.87;;;4.20;99.90;;;;;;5104080;28;20032;-77
2022/02/22 04:05:55;;;;;;;32.77;6.50;;;4.20;99.90;;;;;;5104473;28;20456;-77
2022/02/22 04:08:20;;;;;;;34.83;6.43;;;4.20;99.90;;;;;;5067250;28;20127;-77
2022/02/22 04:10:46;;;;;;;26.70;5.70;;;4.20;99.90;;;;;;5066332;28;20048;-77
2022/02/22 04:13:12;;;;;;;29.20;5.67;;;4.20;99.90;;;;;;5086623;28;20044;-77
2022/02/22 04:15:38;;;;;;;30.30;5.57;;;4.20;99.90;;;;;;5069882;28;20047;-76
2022/02/22 04:18:04;;;;;;;24.87;6.70;;;4.20;99.90;;;;;;5093585;28;20058;-77
2022/02/22 04:20:30;;;;;;;33.17;5.87;;;4.20;99.90;;;;;;5082910;28;20056;-77
2022/02/22 04:22:56;;;;;;;30.93;6.80;;;4.10;99.90;;;;;;5067302;28;20095;-77
2022/02/22 04:25:21;;;;;;;27.43;6.20;;;4.20;99.90;;;;;;5083958;28;20048;-77
2022/02/22 04:27:47;;;;;;;27.57;6.07;;;4.10;99.90;;;;;;5051434;28;20503;-77
2022/02/22 04:30:13;;;;;;;32.27;7.00;;;4.10;99.90;;;;;;5053898;28;20456;-77
2022/02/22 04:32:39;;;;;;;26.63;7.77;;;4.10;99.90;;;;;;5120870;28;20226;-77
2022/02/22 04:35:06;;;;;;;26.53;6.30;;;4.10;99.90;;;;;;5104045;28;20048;-76
2022/02/22 04:37:31;;;;;;;30.40;7.00;;;4.10;99.90;;;;;;5069976;28;20048;-77
2022/02/22 04:40:01;;;;;;;34.60;5.87;;;4.10;99.90;;;;;;5053122;28;20070;-77
2022/02/22 04:42:30;;;;;;;28.37;5.43;;;4.20;99.90;;;;;;5104439;28;20078;-77
2022/02/22 04:44:55;;;;;;;28.83;6.57;;;4.20;99.90;;;;;;5053519;28;20445;-77
2022/02/22 04:47:21;;;;;;;28.40;5.43;;;4.20;99.90;;;;;;5069236;28;20056;-77
2022/02/22 04:49:47;;;;;;;30.60;6.30;;;4.20;99.90;;;;;;5051380;28;20101;-76
2022/02/22 04:52:13;;;;;;;28.93;5.80;;;4.30;99.90;;;;;;5089560;28;20044;-77
2022/02/22 04:54:42;;;;;;;27.30;6.80;;;4.30;99.90;;;;;;5074101;28;20521;-76
2022/02/22 04:57:07;;;;;;;33.13;6.47;;;4.30;99.90;;;;;;5091292;28;20052;-77
2022/02/22 04:59:36;;;;;;;32.93;6.30;;;4.30;99.90;;;;;;5073842;28;20048;-77
2022/02/22 05:02:02;;;;;;;29.93;6.63;;;4.30;99.90;;;;;;5120353;27;20052;-76
2022/02/22 05:04:28;;;;;;;28.23;6.33;;;4.30;99.90;;;;;;5073714;28;20579;-76
2022/02/22 05:06:54;;;;;;;26.37;6.10;;;4.30;99.90;;;;;;5065216;28;20044;-77
2022/02/22 05:09:21;;;;;;;28.23;5.60;;;4.30;99.90;;;;;;5054420;28;20514;-77
2022/02/22 05:11:46;;;;;;;30.07;5.90;;;4.20;99.90;;;;;;5093848;28;20052;-77
2022/02/22 05:14:12;;;;;;;33.87;5.80;;;4.20;99.90;;;;;;5090503;28;20108;-77
2022/02/22 05:16:39;;;;;;;35.57;5.93;;;4.10;99.90;;;;;;5089752;28;20332;-77
2022/02/22 05:19:05;;;;;;;27.33;5.73;;;4.10;99.90;;;;;;5071587;28;20196;-77
2022/02/22 05:21:34;;;;;;;26.27;5.27;;;4.10;99.90;;;;;;5051878;28;20057;-77
2022/02/22 05:24:01;;;;;;;26.43;6.27;;;4.10;99.90;;;;;;5053154;28;20558;-77
2022/02/22 05:26:26;;;;;;;31.47;7.00;;;4.00;99.90;;;;;;5053535;28;20391;-77
2022/02/22 05:28:52;;;;;;;27.43;6.53;;;4.00;99.90;;;;;;5043974;28;20048;-77
2022/02/22 05:31:18;;;;;;;28.33;6.70;;;4.00;99.90;;;;;;5053411;28;20051;-77
2022/02/22 05:33:45;;;;;;;28.70;5.37;;;4.00;99.90;;;;;;5103372;28;20487;-78
2022/02/22 05:36:11;;;;;;;30.83;6.50;;;4.00;99.90;;;;;;5086289;28;20075;-77
2022/02/22 05:38:37;;;;;;;28.57;5.60;;;3.90;99.90;;;;;;5052472;28;20044;-77
2022/02/22 05:41:03;;;;;;;29.43;5.60;;;3.80;99.90;;;;;;5091320;28;20520;-77
2022/02/22 05:43:29;;;;;;;29.73;5.50;;;3.80;99.90;;;;;;5090157;28;20051;-77
2022/02/22 05:45:55;;;;;;;28.97;6.87;;;3.80;99.90;;;;;;5072865;28;20044;-77
2022/02/22 05:48:21;;;;;;;32.30;6.27;;;3.70;99.90;;;;;;5051763;28;20049;-76
2022/02/22 05:50:47;;;;;;;29.20;6.67;;;3.70;99.90;;;;;;5108160;27;20503;-77
2022/02/22 05:53:13;;;;;;;32.37;6.80;;;3.60;99.90;;;;;;5086830;28;20453;-77
2022/02/22 05:55:39;;;;;;;35.00;6.67;;;3.60;99.90;;;;;;5068839;28;20067;-77
2022/02/22 05:58:05;;;;;;;36.90;6.83;;;3.60;99.90;;;;;;5069161;28;20495;-77
2022/02/22 06:00:34;;;;;;;36.57;6.07;;;3.50;99.90;;;;;;5102299;27;20118;-77
2022/02/22 06:02:59;;;;;;;32.33;6.43;;;3.50;99.90;;;;;;5085689;28;20090;-77
2022/02/22 06:05:25;;;;;;;36.97;6.93;;;3.50;99.90;;;;;;5086492;28;20044;-77
2022/02/22 06:07:51;;;;;;;36.70;8.03;;;3.60;99.90;;;;;;5085665;28;20057;-76
2022/02/22 06:10:17;;;;;;;38.40;7.17;;;3.60;99.90;;;;;;5086008;28;20040;-77
2022/02/22 06:12:46;;;;;;;38.73;7.33;;;3.50;99.90;;;;;;5084199;28;20048;-77
2022/02/22 06:15:12;;;;;;;38.20;7.87;;;3.50;99.90;;;;;;5072894;28;20052;-77
2022/02/22 06:17:40;;;;;;;41.37;7.17;;;3.40;99.90;;;;;;5082167;28;20113;-76
2022/02/22 06:20:08;;;;;;;39.40;8.17;;;3.40;99.90;;;;;;5102507;28;20056;-77
2022/02/22 06:22:34;;;;;;;36.77;7.87;;;3.40;99.90;;;;;;5036775;28;20110;-77
2022/02/22 06:25:02;;;;;;;38.70;7.83;;;3.30;99.90;;;;;;5053058;28;20044;-76
2022/02/22 06:27:31;;;;;;;36.97;7.53;;;3.40;99.90;;;;;;5103307;28;20105;-76
2022/02/22 06:30:00;;;;;;;37.33;8.17;;;3.40;99.90;;;;;;5106914;28;20051;-76
2022/02/22 06:32:26;;;;;;;35.43;7.17;;;3.40;99.90;;;;;;5106932;28;20410;-76
2022/02/22 06:34:54;;;;;;;34.83;7.00;;;3.30;99.90;;;;;;5122636;27;20048;-77
2022/02/22 06:37:29;;;;;;;41.10;6.57;;;3.30;99.90;;;;;;5104667;28;20044;-76
2022/02/22 06:39:55;;;;;;;36.60;7.40;;;3.20;99.90;;;;;;5105191;28;20186;-77
2022/02/22 06:42:21;;;;;;;39.87;8.20;;;3.40;99.90;;;;;;5088349;27;20479;-77
2022/02/22 06:44:46;;;;;;;38.50;7.10;;;3.30;99.90;;;;;;5083759;28;20563;-76
2022/02/22 06:47:12;;;;;;;31.37;6.53;;;3.30;99.90;;;;;;5102206;28;20036;-78
2022/02/22 06:49:38;;;;;;;36.63;7.67;;;3.40;99.90;;;;;;5056247;28;20517;-78
2022/02/22 06:52:04;;;;;;;40.00;7.37;;;3.30;99.90;;;;;;5071756;28;20473;-77
2022/02/22 06:54:30;;;;;;;41.27;8.00;;;3.30;99.90;;;;;;5054862;28;20051;-77
2022/02/22 06:56:59;;;;;;;39.03;7.90;;;3.40;99.90;;;;;;5054283;28;20449;-77
2022/02/22 06:59:24;;;;;;;41.77;7.33;;;3.40;99.90;;;;;;5054681;28;20096;-78
2022/02/22 07:01:50;;;;;;;38.20;7.67;;;3.50;99.90;;;;;;5056260;28;20056;-78
2022/02/22 07:04:16;;;;;;;40.33;8.57;;;3.50;99.90;;;;;;5084645;28;20119;-78
2022/02/22 07:06:42;;;;;;;38.77;8.13;;;3.60;99.90;;;;;;5067752;28;20052;-77
2022/02/22 07:09:08;;;;;;;36.17;7.00;;;3.50;99.90;;;;;;5067581;28;20048;-78
2022/02/22 07:11:33;;;;;;;37.50;7.87;;;3.50;99.90;;;;;;5094836;28;20745;-78
2022/02/22 07:13:59;;;;;;;39.03;7.37;;;3.60;99.90;;;;;;5053322;28;20039;-77
2022/02/22 07:16:25;;;;;;;42.10;7.10;;;3.50;99.90;;;;;;5088250;28;20410;-77
2022/02/22 07:18:52;;;;;;;36.30;7.83;;;3.50;99.90;;;;;;5051971;28;20475;-77
2022/02/22 07:21:18;;;;;;;44.17;7.60;;;3.50;99.90;;;;;;5069171;28;20056;-78
2022/02/22 07:23:44;;;;;;;40.13;7.13;;;3.50;99.90;;;;;;5070549;28;20135;-78
2022/02/22 07:26:09;;;;;;;39.47;7.50;;;3.60;99.90;;;;;;5073671;28;20035;-78
2022/02/22 07:28:35;;;;;;;34.90;6.60;;;3.60;99.90;;;;;;5097943;27;20051;-78
2022/02/22 07:31:01;;;;;;;33.93;7.13;;;3.70;99.90;;;;;;5042081;28;20040;-77
2022/02/22 07:33:30;;;;;;;35.53;7.73;;;3.70;99.90;;;;;;5101068;27;20094;-78
2022/02/22 07:36:06;;;;;;;36.57;6.33;;;3.80;99.90;;;;;;5061812;28;20538;-78
2022/02/22 07:38:32;;;;;;;35.17;8.17;;;3.90;99.90;;;;;;5112288;27;20048;-78
2022/02/22 07:40:58;;;;;;;36.17;7.33;;;3.90;99.90;;;;;;5099914;28;20040;-77
2022/02/22 07:43:24;;;;;;;38.03;6.47;;;4.00;99.90;;;;;;5072616;28;20063;-78
2022/02/22 07:45:50;;;;;;;40.60;7.53;;;4.00;99.90;;;;;;5084806;28;20044;-78
2022/02/22 07:48:16;;;;;;;42.27;7.07;;;4.00;99.90;;;;;;5068985;28;20483;-78
2022/02/22 07:50:41;;;;;;;40.00;8.60;;;4.10;99.90;;;;;;5070615;28;20035;-78
2022/02/22 07:53:07;;;;;;;32.30;6.93;;;4.10;99.90;;;;;;5093762;28;20032;-78
2022/02/22 07:55:33;;;;;;;40.30;6.57;;;4.00;99.90;;;;;;5065367;28;20135;-78
2022/02/22 07:57:59;;;;;;;41.67;7.83;;;4.10;99.90;;;;;;5107590;27;20075;-78
2022/02/22 08:00:25;;;;;;;38.13;7.13;;;4.10;99.90;;;;;;5043961;28;20097;-77
2022/02/22 08:02:54;;;;;;;35.33;6.87;;;4.10;99.90;;;;;;5076205;28;20123;-78
2022/02/22 08:05:21;;;;;;;36.00;7.57;;;4.20;99.90;;;;;;5079926;28;20043;-78
2022/02/22 08:07:48;;;;;;;36.47;7.10;;;4.20;99.90;;;;;;5117643;27;20075;-78
2022/02/22 08:10:16;;;;;;;40.50;7.63;;;4.30;99.90;;;;;;5070487;28;20168;-78
2022/02/22 08:12:42;;;;;;;31.77;5.93;;;4.30;99.90;;;;;;5068858;28;20107;-78
2022/02/22 08:15:08;;;;;;;31.47;7.27;;;4.40;99.90;;;;;;5087426;28;20048;-78
2022/02/22 08:17:40;;;;;;;31.60;7.27;;;4.50;99.90;;;;;;5089626;28;20056;-77
2022/02/22 08:20:06;;;;;;;38.77;6.57;;;4.50;99.90;;;;;;5083767;28;20055;-78
2022/02/22 08:22:32;;;;;;;25.67;5.93;;;4.60;99.90;;;;;;5131262;27;20495;-78
2022/02/22 08:24:58;;;;;;;32.60;7.00;;;4.70;99.90;;;;;;5080868;28;20170;-78
2022/02/22 08:27:24;;;;;;;28.23;6.27;;;4.80;99.90;;;;;;5068909;28;20036;-78
2022/02/22 08:29:50;;;;;;;38.90;7.40;;;4.90;99.90;;;;;;5064994;28;20087;-78
2022/02/22 08:32:16;;;;;;;36.58;7.10;;;5.10;99.90;;;;;;5079965;28;20181;-77
2022/02/22 08:34:45;;;;;;;30.33;6.20;;;5.10;99.90;;;;;;5088263;28;20122;-78
2022/02/22 08:37:11;;;;;;;29.83;6.20;;;5.30;99.90;;;;;;5076454;28;20061;-78
2022/02/22 08:39:37;;;;;;;33.37;6.17;;;5.40;99.90;;;;;;5085250;28;20036;-77
2022/02/22 08:42:06;;;;;;;31.13;5.93;;;5.50;99.90;;;;;;5097259;28;20067;-78
2022/02/22 08:44:32;;;;;;;30.97;6.13;;;5.60;99.90;;;;;;5054831;28;20113;-78
2022/02/22 08:46:58;;;;;;;32.47;7.00;;;5.60;99.90;;;;;;5096088;28;20051;-78
2022/02/22 08:49:24;;;;;;;31.17;5.70;;;5.80;99.90;;;;;;5099370;28;20036;-77
2022/02/22 08:51:50;;;;;;;32.53;6.13;;;5.90;99.90;;;;;;5097453;28;20448;-78
2022/02/22 08:54:15;;;;;;;26.93;5.43;;;6.00;99.90;;;;;;5079026;28;20036;-78
2022/02/22 08:56:41;;;;;;;33.75;5.93;;;6.00;99.90;;;;;;5067728;28;20032;-84
2022/02/22 08:59:07;;;;;;;28.02;5.45;;;6.10;99.90;;;;;;5095788;28;20389;-82
2022/02/22 09:01:33;;;;;;;27.30;6.23;;;6.10;99.90;;;;;;5080290;28;20055;-82
2022/02/22 09:03:59;;;;;;;19.33;5.57;;;6.10;99.90;;;;;;5083599;28;20440;-82
2022/02/22 09:06:25;;;;;;;29.27;5.38;;;6.20;99.90;;;;;;5067267;28;20101;-82
2022/02/22 09:08:51;;;;;;;27.43;5.80;;;6.20;99.90;;;;;;5073456;28;20498;-82
2022/02/22 09:11:17;;;;;;;22.70;5.00;;;6.20;99.90;;;;;;5067023;28;20036;-83
2022/02/22 09:13:43;;;;;;;26.75;6.18;;;6.20;99.90;;;;;;5088421;28;20043;-82
2022/02/22 09:16:09;;;;;;;29.45;6.00;;;6.30;99.90;;;;;;5078271;28;20032;-81
2022/02/22 09:18:35;;;;;;;29.23;6.07;;;6.30;99.90;;;;;;5100398;28;20044;-83
2022/02/22 09:21:01;;;;;;;23.58;5.68;;;6.40;99.90;;;;;;5088785;28;20052;-82
2022/02/22 09:23:28;;;;;;;27.00;5.93;;;6.40;99.90;;;;;;5118419;27;20460;-83
2022/02/22 09:25:55;;;;;;;22.98;5.88;;;6.60;99.90;;;;;;5097558;28;20108;-82
2022/02/22 09:28:22;;;;;;;27.88;6.68;;;6.50;99.90;;;;;;5078207;28;20040;-82
2022/02/22 09:30:48;;;;;;;29.73;6.45;;;6.50;99.90;;;;;;5087420;28;20745;-83
2022/02/22 09:33:13;;;;;;;28.52;7.00;;;6.50;99.90;;;;;;5104049;28;20130;-82
2022/02/22 09:35:40;;;;;;;30.17;7.95;;;6.50;99.90;;;;;;5063872;28;20036;-83
2022/02/22 09:38:06;;;;;;;23.98;8.25;;;6.60;99.90;;;;;;5087564;28;20074;-83
2022/02/22 09:40:34;;;;;;;29.60;8.75;;;6.60;99.90;;;;;;5083723;28;20095;-80
2022/02/22 09:43:01;;;;;;;30.40;8.20;;;6.60;99.90;;;;;;5055874;28;20264;-81
2022/02/22 09:45:30;;;;;;;33.90;10.02;;;6.60;99.90;;;;;;5110767;27;20489;-81
2022/02/22 09:48:01;;;;;;;35.35;10.35;;;6.60;99.90;;;;;;5098875;28;20042;-80
2022/02/22 09:50:28;;;;;;;36.60;11.38;;;6.70;99.90;;;;;;5073616;28;20044;-81
2022/02/22 09:52:55;;;;;;;32.85;9.85;;;6.70;99.90;;;;;;5070217;28;20047;-81
2022/02/22 09:55:21;;;;;;;39.03;12.30;;;6.70;99.90;;;;;;5074515;28;20113;-81
2022/02/22 09:57:47;;;;;;;36.55;10.68;;;6.80;99.90;;;;;;5096362;28;20047;-81
2022/02/22 10:00:16;;;;;;;33.10;10.60;;;6.80;99.90;;;;;;5071604;28;20036;-81
2022/02/22 10:02:41;;;;;;;28.60;10.10;;;6.90;99.90;;;;;;5104513;28;20040;-81
2022/02/22 10:05:19;;;;;;;38.50;11.15;;;6.90;99.90;;;;;;5092853;28;20047;-80
2022/02/22 10:07:58;;;;;;;37.35;10.73;;;6.90;99.90;;;;;;5075154;28;20048;-80
2022/02/22 10:10:41;;;;;;;28.25;8.75;;;7.10;99.90;;;;;;5083194;28;20036;-79
2022/02/22 10:13:20;;;;;;;33.88;10.18;;;7.10;99.90;;;;;;5092184;28;20498;-81
2022/02/22 10:15:49;;;;;;;27.52;9.00;;;7.10;99.90;;;;;;5073630;28;20040;-81
2022/02/22 10:18:16;;;;;;;34.20;9.13;;;7.10;99.90;;;;;;5080315;28;20134;-80
2022/02/22 10:20:42;;;;;;;39.20;10.43;;;7.20;99.90;;;;;;5069677;28;20127;-81
2022/02/22 10:23:09;;;;;;;31.05;8.13;;;7.20;99.90;;;;;;5063718;28;20481;-79
2022/02/22 10:25:36;;;;;;;31.45;8.23;;;7.20;99.90;;;;;;5089197;28;20036;-80
2022/02/22 10:28:04;;;;;;;34.88;8.35;;;7.30;99.90;;;;;;5098437;28;20040;-81
2022/02/22 10:30:41;;;;;;;32.67;8.18;;;7.30;99.90;;;;;;5081612;28;20135;-81
2022/02/22 10:33:17;;;;;;;27.23;7.45;;;7.40;99.90;;;;;;5081397;28;20046;-81
2022/02/22 10:35:47;;;;;;;33.78;7.35;;;7.40;99.90;;;;;;5078469;28;20184;-82
2022/02/22 10:38:28;;;;;;;29.80;7.50;;;7.40;99.90;;;;;;5087059;28;20051;-81
2022/02/22 10:41:17;;;;;;;25.75;5.55;;;7.50;99.90;;;;;;5108922;27;20047;-80
2022/02/22 10:43:51;;;;;;;29.45;6.50;;;7.60;99.90;;;;;;5087529;28;20047;-81
2022/02/22 10:46:26;;;;;;;28.33;6.82;;;7.60;99.90;;;;;;5129646;27;20043;-80
2022/02/22 10:49:08;;;;;;;25.80;6.43;;;7.60;99.90;;;;;;5088268;28;20117;-80
2022/02/22 10:51:38;;;;;;;33.08;7.35;;;7.60;99.90;;;;;;5085255;28;20039;-81
2022/02/22 10:54:05;;;;;;;30.88;6.63;;;7.60;99.90;;;;;;5086113;28;20086;-81
2022/02/22 10:56:33;;;;;;;32.85;5.97;;;7.60;99.90;;;;;;5064390;28;20086;-80
2022/02/22 10:58:59;;;;;;;27.33;5.78;;;7.60;99.90;;;;;;5063964;28;20040;-81
2022/02/22 11:01:28;;;;;;;27.67;6.10;;;7.60;99.90;;;;;;5089187;28;20082;-80
2022/02/22 11:03:54;;;;;;;31.17;6.60;;;7.70;99.90;;;;;;5053604;28;20052;-80
2022/02/22 11:06:20;;;;;;;27.45;5.50;;;7.70;99.90;;;;;;5089304;28;20054;-80
2022/02/22 11:08:48;;;;;;;26.23;5.75;;;7.70;99.90;;;;;;5068738;28;20036;-80
2022/02/22 11:12:04;;;;;;;28.23;5.53;;;7.80;99.90;;;;;;5093140;28;20046;-81
2022/02/22 11:14:31;;;;;;;25.17;4.55;;;7.80;99.90;;;;;;5046754;28;20052;-81
2022/02/22 11:17:14;;;;;;;24.27;5.32;;;7.80;99.90;;;;;;5087381;28;20043;-81
2022/02/22 11:19:40;;;;;;;26.65;5.75;;;7.80;99.90;;;;;;5113218;27;20036;-80
2022/02/22 11:22:13;;;;;;;23.23;5.20;;;7.80;99.90;;;;;;5076328;28;20635;-80
2022/02/22 11:24:50;;;;;;;34.72;6.50;;;7.80;99.90;;;;;;5088746;28;20047;-80
2022/02/22 11:27:30;;;;;;;23.48;5.28;;;7.80;99.90;;;;;;5080084;28;20543;-80
2022/02/22 11:30:07;;;;;;;23.92;4.65;;;7.80;99.90;;;;;;5114669;27;20327;-80
2022/02/22 11:32:38;;;;;;;22.35;5.30;;;7.80;99.90;;;;;;5106402;28;20051;-79
2022/02/22 11:35:16;;;;;;;25.48;5.47;;;7.80;99.90;;;;;;5078592;28;20482;-81
2022/02/22 11:37:42;;;;;;;23.33;5.50;;;7.90;99.90;;;;;;5101853;28;20078;-80
2022/02/22 11:40:09;;;;;;;22.15;4.95;;;7.90;99.90;;;;;;5072337;28;20032;-80
2022/02/22 11:42:35;;;;;;;25.40;6.10;;;7.90;99.90;;;;;;5072907;28;20647;-80
2022/02/22 11:45:07;;;;;;;28.65;6.35;;;7.90;99.90;;;;;;5098770;28;20054;-80
2022/02/22 11:47:35;;;;;;;25.75;6.18;;;7.80;99.90;;;;;;5099011;28;20051;-80
2022/02/22 11:50:13;;;;;;;32.10;6.88;;;7.90;99.90;;;;;;5135570;27;20059;-81
2022/02/22 11:52:43;;;;;;;29.67;6.93;;;7.90;99.90;;;;;;5132658;27;20498;-80
2022/02/22 11:55:11;;;;;;;31.17;6.07;;;7.90;99.90;;;;;;5084974;28;20044;-81
2022/02/22 11:57:45;;;;;;;21.77;5.53;;;7.90;99.90;;;;;;5094065;28;20127;-78
2022/02/22 12:00:11;;;;;;;23.48;5.78;;;7.90;99.90;;;;;;5088138;28;20380;-80
2022/02/22 12:02:44;;;;;;;27.80;6.03;;;7.80;99.90;;;;;;5095679;28;20118;-80
2022/02/22 12:05:28;;;;;;;29.25;6.95;;;7.80;99.90;;;;;;5094828;28;20134;-81
2022/02/22 12:08:18;;;;;;;28.38;7.13;;;7.70;99.90;;;;;;5079407;28;20036;-80
2022/02/22 12:10:47;;;;;;;33.40;7.50;;;7.70;99.90;;;;;;5085713;28;20052;-80
2022/02/22 12:13:15;;;;;;;25.48;7.18;;;7.60;99.90;;;;;;5115093;27;20067;-79
2022/02/22 12:15:42;;;;;;;22.58;7.72;;;7.50;99.90;;;;;;5065884;28;20059;-80
2022/02/22 12:18:23;;;;;;;33.65;8.18;;;7.50;99.90;;;;;;5062124;28;20044;-79
2022/02/22 12:20:54;;;;;;;32.63;9.98;;;7.50;99.90;;;;;;5061657;28;20204;-80
2022/02/22 12:23:22;;;;;;;32.38;8.50;;;7.40;99.90;;;;;;5062102;28;20040;-79
2022/02/22 12:25:51;;;;;;;39.55;11.55;;;7.40;99.90;;;;;;5062787;28;20075;-79
2022/02/22 12:28:18;;;;;;;28.92;9.82;;;7.40;99.90;;;;;;5106093;27;20048;-79
2022/02/22 12:30:45;;;;;;;34.33;10.68;;;7.40;99.90;;;;;;5097632;28;20048;-80
2022/02/22 12:33:14;;;;;;;32.80;11.48;;;7.40;99.90;;;;;;5111944;27;20042;-80
2022/02/22 12:35:43;;;;;;;36.50;12.23;;;7.40;99.90;;;;;;5105379;28;20048;-80
2022/02/22 12:38:23;;;;;;;34.42;12.82;;;7.50;99.90;;;;;;5075189;28;20577;-79
2022/02/22 12:40:51;;;;;;;39.00;13.20;;;7.50;99.90;;;;;;5070721;28;20068;-80
2022/02/22 12:43:17;;;;;;;27.55;11.40;;;7.60;99.90;;;;;;5068716;28;20044;-80
2022/02/22 12:45:51;;;;;;;33.38;13.43;;;7.60;99.90;;;;;;5052831;28;20036;-80
2022/02/22 12:48:19;;;;;;;34.05;14.55;;;7.60;99.90;;;;;;5044720;28;20104;-80